Airport ID:CZBM
Update Time (UTC):14/05/2021 22:27
Wind Speed (Knots):5
Wind Direction (Magnetic):050
Temperature (°C):19
Dew Point (°C):4
Humidity (%):37
Altimeter (inHg):30.1
Density Altitude (Feet):
Visibility:10+
Clouds (Hundreds of feet):BKN100 BKN120
Present Weather:
METAR:METAR CZBM 142200Z AUTO 03010G17KT 300V050 10SM BKN110 21/03 A3009 RMK PCPN MISG ICG MISG TS/LTNG TEMPO UNAVBL T02080031 SLP187=

The data displayed is for advisory purposes only and is not to be used for flight planning or operations.